createdAt,value
2022-12-18T00:00:11.030Z,52.47
2022-12-18T00:02:49.940Z,56.78
2022-12-18T00:05:23.165Z,60.63
2022-12-18T00:07:54.168Z,55.92
2022-12-18T00:10:24.952Z,54.60
2022-12-18T00:12:57.713Z,50.85
2022-12-18T00:15:28.316Z,51.45
2022-12-18T00:17:59.423Z,58.50
2022-12-18T00:20:38.089Z,51.22
2022-12-18T00:23:09.486Z,55.40
2022-12-18T00:25:41.042Z,54.50
2022-12-18T00:28:24.902Z,48.20
2022-12-18T00:31:07.579Z,53.30
2022-12-18T00:33:40.248Z,52.30
2022-12-18T00:36:16.632Z,50.40
2022-12-18T00:38:49.531Z,52.00
2022-12-18T00:41:42.296Z,49.03
2022-12-18T00:44:17.400Z,50.67
2022-12-18T00:46:49.440Z,57.10
2022-12-18T00:49:22.509Z,52.45
2022-12-18T00:51:53.921Z,48.47
2022-12-18T00:54:28.691Z,50.83
2022-12-18T00:56:58.970Z,49.53
2022-12-18T00:59:33.172Z,59.85
2022-12-18T01:02:04.895Z,52.63
2022-12-18T01:04:36.611Z,49.45
2022-12-18T01:07:08.058Z,50.83
2022-12-18T01:09:39.202Z,53.67
2022-12-18T01:12:10.341Z,51.15
2022-12-18T01:14:47.079Z,49.38
2022-12-18T01:17:18.914Z,58.83
2022-12-18T01:19:49.179Z,49.95
2022-12-18T01:22:19.323Z,65.03
2022-12-18T01:24:51.903Z,56.22
2022-12-18T01:27:22.538Z,58.83
2022-12-18T01:30:02.687Z,53.47
2022-12-18T01:32:36.647Z,53.17
2022-12-18T01:35:07.439Z,51.67
2022-12-18T01:37:37.772Z,53.05
2022-12-18T01:40:09.239Z,52.72
2022-12-18T01:42:39.401Z,54.10
2022-12-18T01:45:33.394Z,59.13
2022-12-18T01:48:07.560Z,52.63
2022-12-18T01:50:40.699Z,55.03
2022-12-18T01:53:15.008Z,53.88
2022-12-18T01:55:50.583Z,54.75
2022-12-18T01:58:24.364Z,56.67
2022-12-18T02:00:59.178Z,65.47
2022-12-18T02:03:30.058Z,56.65
2022-12-18T02:06:11.085Z,57.13
2022-12-18T02:08:49.722Z,59.63
2022-12-18T02:11:26.012Z,59.22
2022-12-18T02:14:07.719Z,58.00
2022-12-18T02:16:51.479Z,60.50
2022-12-18T02:19:43.841Z,62.00
2022-12-18T02:22:29.042Z,54.28
2022-12-18T02:25:10.343Z,58.85
2022-12-18T02:27:45.313Z,68.50
2022-12-18T02:30:16.394Z,66.63
2022-12-18T02:32:52.158Z,59.78
2022-12-18T02:35:28.219Z,61.35
2022-12-18T02:38:02.197Z,60.95
2022-12-18T02:40:36.893Z,69.20
2022-12-18T02:43:12.240Z,61.13
2022-12-18T02:45:52.183Z,65.80
2022-12-18T02:48:27.995Z,58.85
2022-12-18T02:51:07.947Z,57.88
2022-12-18T02:53:46.917Z,59.97
2022-12-18T02:56:22.945Z,57.00
2022-12-18T02:59:02.785Z,56.40
2022-12-18T03:01:46.308Z,58.13
2022-12-18T03:04:27.822Z,54.63
2022-12-18T03:07:04.595Z,54.90
2022-12-18T03:09:39.568Z,59.72
2022-12-18T03:12:28.053Z,56.05
2022-12-18T03:15:16.010Z,54.35
2022-12-18T03:17:56.026Z,56.00
2022-12-18T03:20:38.735Z,58.50
2022-12-18T03:23:15.283Z,57.33
2022-12-18T03:26:07.146Z,58.97
2022-12-18T03:28:44.192Z,54.58
2022-12-18T03:31:18.735Z,56.38
2022-12-18T03:33:55.466Z,55.28
2022-12-18T03:36:31.485Z,55.55
2022-12-18T03:39:05.322Z,57.63
2022-12-18T03:41:50.883Z,53.00
2022-12-18T03:44:34.359Z,58.55
2022-12-18T03:47:11.935Z,56.08
2022-12-18T03:49:52.281Z,55.78
2022-12-18T03:52:30.441Z,56.08
2022-12-18T03:55:04.435Z,53.13
2022-12-18T03:57:36.845Z,59.35
2022-12-18T04:00:17.068Z,59.75
2022-12-18T04:03:05.152Z,65.38
2022-12-18T04:05:46.246Z,60.25
2022-12-18T04:08:19.086Z,57.60
2022-12-18T04:10:59.648Z,58.88
2022-12-18T04:13:34.068Z,52.38
2022-12-18T04:16:08.227Z,54.92
2022-12-18T04:18:41.721Z,59.90
2022-12-18T04:21:14.208Z,60.00
2022-12-18T04:23:44.433Z,56.65
2022-12-18T04:26:14.956Z,56.85
2022-12-18T04:28:56.033Z,56.90
2022-12-18T04:31:26.343Z,53.63
2022-12-18T04:34:00.315Z,61.42
2022-12-18T04:36:32.107Z,57.92
2022-12-18T04:39:02.921Z,59.88
2022-12-18T04:41:42.344Z,63.00
2022-12-18T04:44:13.569Z,60.67
2022-12-18T04:46:43.914Z,59.40
2022-12-18T04:49:16.891Z,59.38
2022-12-18T04:51:48.034Z,60.45
2022-12-18T04:54:18.203Z,57.30
2022-12-18T04:56:51.447Z,64.53
2022-12-18T04:59:22.633Z,55.88
2022-12-18T05:01:53.577Z,58.80
2022-12-18T05:04:26.942Z,55.92
2022-12-18T05:07:00.870Z,57.83
2022-12-18T05:09:31.227Z,56.47
2022-12-18T05:12:01.485Z,52.40
2022-12-18T05:14:32.808Z,56.03
2022-12-18T05:17:04.399Z,55.53
2022-12-18T05:19:40.032Z,53.95
2022-12-18T05:22:13.834Z,55.50
2022-12-18T05:27:13.861Z,57.85
2022-12-18T05:29:44.185Z,64.40
2022-12-18T05:32:14.406Z,55.83
2022-12-18T05:34:47.148Z,61.00
2022-12-18T05:37:18.092Z,57.65
2022-12-18T05:39:49.107Z,54.30
2022-12-18T05:42:19.497Z,54.75
2022-12-18T05:44:49.603Z,55.00
2022-12-18T05:47:19.854Z,58.08
2022-12-18T05:49:53.038Z,59.47
2022-12-18T05:52:23.037Z,57.42
2022-12-18T05:54:53.132Z,55.03
2022-12-18T05:57:23.436Z,55.22
2022-12-18T05:59:53.711Z,57.85
2022-12-18T06:02:28.315Z,62.40
2022-12-18T06:05:01.176Z,71.65
2022-12-18T06:07:31.208Z,81.57
2022-12-18T06:10:04.755Z,64.50
2022-12-18T06:12:35.120Z,60.47
2022-12-18T06:15:05.268Z,70.53
2022-12-18T06:17:36.318Z,80.65
2022-12-18T06:20:10.843Z,82.72
2022-12-18T06:22:41.055Z,73.50
2022-12-18T06:25:12.195Z,65.70
2022-12-18T06:27:42.467Z,74.75
2022-12-18T06:30:14.845Z,68.40
2022-12-18T06:32:45.141Z,66.43
2022-12-18T06:35:21.419Z,67.05
2022-12-18T06:37:52.121Z,66.95
2022-12-18T06:40:23.204Z,64.72
2022-12-18T06:42:56.330Z,66.47
2022-12-18T06:45:28.346Z,67.88
2022-12-18T06:47:58.567Z,70.65
2022-12-18T06:50:32.048Z,68.30
2022-12-18T06:53:02.504Z,71.13
2022-12-18T06:55:32.772Z,66.50
2022-12-18T06:58:02.893Z,66.85
2022-12-18T07:00:33.392Z,83.30
2022-12-18T07:03:04.048Z,123.18
2022-12-18T07:05:37.473Z,84.85
2022-12-18T07:08:08.319Z,123.03
2022-12-18T07:10:48.214Z,147.52
2022-12-18T07:13:19.291Z,135.43
2022-12-18T07:15:49.658Z,252.00
2022-12-18T07:18:20.605Z,172.80
2022-12-18T07:20:58.770Z,201.40
2022-12-18T07:23:33.742Z,324.83
2022-12-18T07:26:06.197Z,339.65
2022-12-18T07:28:38.008Z,439.23
2022-12-18T07:31:09.872Z,288.90
2022-12-18T07:33:41.121Z,281.75
2022-12-18T07:36:17.694Z,167.32
2022-12-18T07:38:51.423Z,389.00
2022-12-18T07:43:52.548Z,343.85
2022-12-18T07:46:23.103Z,97.05
2022-12-18T07:48:53.408Z,171.10
2022-12-18T07:51:26.288Z,190.45
2022-12-18T07:53:56.333Z,152.97
2022-12-18T07:56:28.760Z,147.02
2022-12-18T07:59:01.266Z,154.25
2022-12-18T08:01:43.621Z,281.88
2022-12-18T08:04:13.828Z,142.30
2022-12-18T08:06:53.162Z,141.13
2022-12-18T08:09:25.860Z,131.13
2022-12-18T08:11:56.097Z,127.53
2022-12-18T08:14:27.199Z,121.78
2022-12-18T08:16:57.571Z,99.25
2022-12-18T08:19:28.160Z,101.85
2022-12-18T08:22:01.865Z,87.50
2022-12-18T08:24:36.371Z,75.28
2022-12-18T08:27:28.825Z,71.53
2022-12-18T08:29:56.996Z,108.57
2022-12-18T08:32:36.240Z,92.68
2022-12-18T08:35:11.681Z,90.68
2022-12-18T08:37:44.694Z,71.68
2022-12-18T08:40:18.234Z,131.35
2022-12-18T08:43:01.793Z,90.47
2022-12-18T08:45:39.317Z,100.25
2022-12-18T08:48:12.347Z,233.32
2022-12-18T08:50:42.710Z,80.10
2022-12-18T08:53:17.152Z,74.32
2022-12-18T08:55:50.364Z,82.13
2022-12-18T08:58:23.179Z,68.43
2022-12-18T09:00:54.025Z,77.07
2022-12-18T09:03:24.839Z,55.83
2022-12-18T09:05:57.597Z,84.57
2022-12-18T09:08:30.564Z,159.63
2022-12-18T09:11:03.352Z,87.93
2022-12-18T09:13:36.166Z,74.90
2022-12-18T09:16:08.125Z,118.18
2022-12-18T09:18:43.490Z,77.80
2022-12-18T09:21:19.104Z,66.43
2022-12-18T09:24:02.370Z,52.67
2022-12-18T09:26:32.756Z,56.08
2022-12-18T09:29:07.142Z,56.03
2022-12-18T09:31:41.616Z,101.20
2022-12-18T09:34:11.402Z,67.45
2022-12-18T09:36:53.428Z,58.65
2022-12-18T09:39:24.175Z,52.15
2022-12-18T09:41:54.740Z,52.90
2022-12-18T09:44:24.558Z,57.60
2022-12-18T10:48:55.768Z,82.88
2022-12-18T10:51:31.723Z,81.15
2022-12-18T10:54:06.215Z,84.45
2022-12-18T10:56:39.260Z,85.80
2022-12-18T10:59:10.913Z,81.22
2022-12-18T11:01:52.140Z,80.43
2022-12-18T11:04:27.741Z,71.50
2022-12-18T11:07:04.322Z,81.30
2022-12-18T11:09:36.223Z,76.45
2022-12-18T11:12:08.366Z,63.30
2022-12-18T11:14:48.457Z,56.10
2022-12-18T11:17:26.225Z,58.65
2022-12-18T11:20:00.927Z,49.28
2022-12-18T11:22:33.317Z,47.85
2022-12-18T11:27:58.970Z,50.13
2022-12-18T11:30:36.296Z,48.67
2022-12-18T11:33:09.703Z,55.45
2022-12-18T11:35:51.717Z,65.38
2022-12-18T11:38:26.922Z,60.38
2022-12-18T11:41:02.338Z,50.40
2022-12-18T11:43:38.281Z,49.75
2022-12-18T11:46:19.126Z,50.28
2022-12-18T11:48:56.180Z,46.20
2022-12-18T11:51:36.288Z,45.63
2022-12-18T11:54:16.387Z,46.00
2022-12-18T11:56:51.277Z,46.05
2022-12-18T11:59:32.306Z,47.38
2022-12-18T12:02:18.946Z,43.90
2022-12-18T12:05:17.735Z,47.65
2022-12-18T12:07:59.311Z,85.18
2022-12-18T12:10:44.916Z,61.10
2022-12-18T12:13:27.853Z,49.42
2022-12-18T12:16:10.499Z,52.03
2022-12-18T12:19:02.257Z,64.30
2022-12-18T12:21:39.740Z,56.25
2022-12-18T12:24:27.471Z,50.65
2022-12-18T12:27:06.637Z,50.85
2022-12-18T12:29:49.577Z,50.70
2022-12-18T12:32:34.433Z,50.83
2022-12-18T12:35:17.840Z,50.05
2022-12-18T12:37:56.956Z,47.53
2022-12-18T12:43:34.205Z,172.65
2022-12-18T12:46:09.659Z,647.92
2022-12-18T12:48:45.887Z,182.48
2022-12-18T12:51:21.607Z,95.80
2022-12-18T12:53:53.100Z,95.47
2022-12-18T12:56:28.956Z,192.68
2022-12-18T12:59:06.284Z,48.95
2022-12-18T13:01:43.890Z,50.67
2022-12-18T13:04:26.192Z,53.25
2022-12-18T13:07:04.149Z,50.80
2022-12-18T13:09:36.725Z,52.40
2022-12-18T13:12:27.758Z,52.25
2022-12-18T13:14:58.598Z,51.45
2022-12-18T13:17:33.686Z,70.90
2022-12-18T13:20:24.943Z,67.50
2022-12-18T13:22:56.490Z,61.55
2022-12-18T13:25:39.823Z,70.97
2022-12-18T13:28:15.888Z,69.25
2022-12-18T13:30:51.778Z,74.63
2022-12-18T13:34:24.006Z,61.10
2022-12-18T13:36:37.727Z,50.88
2022-12-18T13:39:36.050Z,52.75
2022-12-18T13:42:48.938Z,53.17
2022-12-18T13:45:50.317Z,49.88
2022-12-18T13:48:42.504Z,53.08
2022-12-18T13:51:20.700Z,55.42
2022-12-18T13:53:55.123Z,54.47
2022-12-18T13:56:29.469Z,67.38
2022-12-18T13:59:15.873Z,57.65
2022-12-18T14:01:53.157Z,59.47
2022-12-18T14:04:27.518Z,57.33
2022-12-18T14:07:01.647Z,57.88
2022-12-18T14:09:35.015Z,62.10
2022-12-18T14:12:20.142Z,80.00
2022-12-18T14:14:53.168Z,61.90
2022-12-18T14:17:28.546Z,61.50
2022-12-18T14:19:58.679Z,54.00
2022-12-18T14:22:31.295Z,55.03
2022-12-18T14:25:20.391Z,57.13
2022-12-18T14:27:53.709Z,81.68
2022-12-18T14:30:33.708Z,70.38
2022-12-18T14:33:14.450Z,68.82
2022-12-18T14:35:50.544Z,64.38
2022-12-18T14:38:27.740Z,70.22
2022-12-18T14:41:05.595Z,75.70
2022-12-18T14:43:38.527Z,69.07
2022-12-18T14:46:10.652Z,68.82
2022-12-18T14:48:46.432Z,71.22
2022-12-18T14:51:21.895Z,69.97
2022-12-18T14:53:57.721Z,67.63
2022-12-18T14:56:30.097Z,67.07
2022-12-18T14:59:02.150Z,64.85
2022-12-18T15:01:36.243Z,65.75
2022-12-18T15:04:29.222Z,72.65
2022-12-18T15:07:17.390Z,67.03
2022-12-18T15:10:07.288Z,70.68
2022-12-18T15:12:39.294Z,68.22
2022-12-18T15:15:26.723Z,64.63
2022-12-18T15:18:01.967Z,74.97
2022-12-18T15:20:36.878Z,79.88
2022-12-18T15:23:06.958Z,80.22
2022-12-18T15:25:40.497Z,76.43
2022-12-18T15:28:24.020Z,73.22
2022-12-18T15:31:09.396Z,75.57
2022-12-18T15:33:42.003Z,79.68
2022-12-18T15:36:19.002Z,79.65
2022-12-18T15:39:02.223Z,86.65
2022-12-18T15:41:37.255Z,79.80
2022-12-18T15:44:22.541Z,79.63
2022-12-18T15:46:53.025Z,80.38
2022-12-18T15:49:25.331Z,78.85
2022-12-18T15:52:02.264Z,75.70
2022-12-18T15:54:44.672Z,81.82
2022-12-18T15:57:27.720Z,80.30
2022-12-18T15:59:59.710Z,78.63
2022-12-18T16:02:30.869Z,76.75
2022-12-18T16:05:01.327Z,90.90
2022-12-18T16:07:34.213Z,93.60
2022-12-18T16:10:04.947Z,106.80
2022-12-18T16:12:35.340Z,127.70
2022-12-18T16:15:11.413Z,112.03
2022-12-18T16:17:42.502Z,109.00
2022-12-18T16:20:16.613Z,108.38
2022-12-18T16:22:50.639Z,109.10
2022-12-18T16:25:26.038Z,108.55
2022-12-18T16:27:57.427Z,108.43
2022-12-18T16:30:34.027Z,107.70
2022-12-18T16:33:09.299Z,104.75
2022-12-18T16:35:39.439Z,104.40
2022-12-18T16:38:12.386Z,95.57
2022-12-18T16:41:04.736Z,97.90
2022-12-18T16:43:34.912Z,94.82
2022-12-18T16:46:05.074Z,99.88
2022-12-18T16:48:42.421Z,96.85
2022-12-18T16:51:12.498Z,104.30
2022-12-18T16:53:45.684Z,101.60
2022-12-18T16:56:15.924Z,116.22
2022-12-18T16:58:45.959Z,141.20
2022-12-18T17:01:16.497Z,152.90
2022-12-18T17:03:46.896Z,157.18
2022-12-18T17:06:18.741Z,160.70
2022-12-18T17:08:52.264Z,148.07
2022-12-18T17:11:23.323Z,160.32
2022-12-18T17:13:54.997Z,152.98
2022-12-18T17:16:28.115Z,152.93
2022-12-18T17:19:01.778Z,171.30
2022-12-18T17:21:33.216Z,163.18
2022-12-18T17:24:09.324Z,155.43
2022-12-18T17:26:40.348Z,137.40
2022-12-18T17:29:10.668Z,141.82
2022-12-18T17:31:40.890Z,139.98
2022-12-18T17:34:11.387Z,136.18
2022-12-18T17:36:43.333Z,138.32
2022-12-18T17:39:22.186Z,132.93
2022-12-18T17:41:52.718Z,134.40
2022-12-18T17:44:23.839Z,141.77
2022-12-18T17:46:54.041Z,136.80
2022-12-18T17:49:26.184Z,139.55
2022-12-18T17:51:56.782Z,136.40
2022-12-18T17:54:29.670Z,136.52
2022-12-18T17:57:00.599Z,146.87
2022-12-18T17:59:35.326Z,140.63
2022-12-18T18:02:05.827Z,145.65
2022-12-18T18:04:38.908Z,145.15
2022-12-18T18:07:09.605Z,139.63
2022-12-18T18:09:42.729Z,143.73
2022-12-18T18:12:25.124Z,145.07
2022-12-18T18:14:55.405Z,148.23
2022-12-18T18:17:25.966Z,143.60
2022-12-18T18:19:56.356Z,137.20
2022-12-18T18:22:29.285Z,128.85
2022-12-18T18:25:03.468Z,119.03
2022-12-18T18:27:38.509Z,123.38
2022-12-18T18:30:10.981Z,127.93
2022-12-18T18:32:41.052Z,127.95
2022-12-18T18:35:19.512Z,122.28
2022-12-18T18:38:04.457Z,120.68
2022-12-18T18:40:37.403Z,122.50
2022-12-18T18:43:12.992Z,122.13
2022-12-18T18:45:43.757Z,126.57
2022-12-18T18:48:16.158Z,119.43
2022-12-18T18:50:46.358Z,119.30
2022-12-18T18:53:16.804Z,120.93
2022-12-18T18:56:17.290Z,121.57
2022-12-18T18:58:40.527Z,118.20
2022-12-18T19:01:13.428Z,116.57
2022-12-18T19:03:43.964Z,116.50
2022-12-18T19:06:18.128Z,111.80
2022-12-18T19:08:49.537Z,114.07
2022-12-18T19:11:36.755Z,122.13
2022-12-18T19:14:17.507Z,115.32
2022-12-18T19:16:50.163Z,105.82
2022-12-18T19:19:21.201Z,106.17
2022-12-18T19:21:51.671Z,99.07
2022-12-18T19:24:22.631Z,102.28
2022-12-18T19:26:57.942Z,103.47
2022-12-18T19:29:28.633Z,98.20
2022-12-18T19:31:59.299Z,98.20
2022-12-18T19:34:29.796Z,100.28
2022-12-18T19:37:00.491Z,93.75
2022-12-18T19:39:31.014Z,95.30
2022-12-18T19:42:04.247Z,98.53
2022-12-18T19:44:34.432Z,99.50
2022-12-18T19:47:04.702Z,99.07
2022-12-18T19:49:34.935Z,95.05
2022-12-18T19:52:05.347Z,96.57
2022-12-18T19:54:35.441Z,98.10
2022-12-18T19:57:13.186Z,99.82
2022-12-18T19:59:46.641Z,103.38
2022-12-18T20:02:19.320Z,108.30
2022-12-18T20:04:52.012Z,118.90
2022-12-18T20:07:22.499Z,109.00
2022-12-18T20:09:59.563Z,109.50
2022-12-18T20:12:37.616Z,112.45
2022-12-18T20:15:08.727Z,108.07
2022-12-18T20:17:38.893Z,105.47
2022-12-18T20:20:13.248Z,108.82
2022-12-18T20:22:43.575Z,115.95
2022-12-18T20:25:14.170Z,111.85
2022-12-18T20:27:47.809Z,119.40
2022-12-18T20:30:18.082Z,125.32
2022-12-18T20:32:48.340Z,120.28
2022-12-18T20:35:18.860Z,121.47
2022-12-18T20:37:50.394Z,117.38
2022-12-18T20:40:22.209Z,119.53
2022-12-18T20:42:55.534Z,117.43
2022-12-18T20:45:29.529Z,129.57
2022-12-18T20:48:01.172Z,128.93
2022-12-18T20:50:31.542Z,134.30
2022-12-18T20:53:02.094Z,137.23
2022-12-18T20:55:32.389Z,116.82
2022-12-18T20:58:05.689Z,114.57
2022-12-18T21:00:36.470Z,111.80
2022-12-18T21:03:07.256Z,110.88
2022-12-18T21:05:37.752Z,104.40
2022-12-18T21:08:10.527Z,112.17
2022-12-18T21:10:43.239Z,113.32
2022-12-18T21:13:16.365Z,111.38
2022-12-18T21:15:48.568Z,106.90
2022-12-18T21:18:18.836Z,103.53
2022-12-18T21:20:49.401Z,105.60
2022-12-18T21:23:19.888Z,105.07
2022-12-18T21:25:51.954Z,106.40
2022-12-18T21:28:28.730Z,102.13
2022-12-18T21:31:12.268Z,97.05
2022-12-18T21:33:43.297Z,97.18
2022-12-18T21:36:17.862Z,97.57
2022-12-18T21:38:48.793Z,100.13
2022-12-18T21:41:33.136Z,96.93
2022-12-18T21:44:11.377Z,101.07
2022-12-18T21:46:44.221Z,102.63
2022-12-18T21:49:17.786Z,102.43
2022-12-18T21:51:48.785Z,102.57
2022-12-18T21:54:19.676Z,100.57
2022-12-18T21:56:52.131Z,99.38
2022-12-18T21:59:26.864Z,97.75
2022-12-18T22:01:59.606Z,96.57
2022-12-18T22:04:31.107Z,97.70
2022-12-18T22:07:02.538Z,102.22
2022-12-18T22:09:33.200Z,96.93
2022-12-18T22:12:04.035Z,95.78
2022-12-18T22:14:39.485Z,94.82
2022-12-18T22:17:11.471Z,95.40
2022-12-18T22:19:43.103Z,94.55
2022-12-18T22:22:13.369Z,93.63
2022-12-18T22:24:43.452Z,88.00
2022-12-18T22:27:13.560Z,86.30
2022-12-18T22:29:58.993Z,86.97
2022-12-18T22:32:31.165Z,85.40
2022-12-18T22:35:08.018Z,79.72
2022-12-18T22:37:39.441Z,83.07
2022-12-18T22:40:11.173Z,78.32
2022-12-18T22:42:43.060Z,77.50
2022-12-18T22:45:21.141Z,81.05
2022-12-18T22:47:51.330Z,82.07
2022-12-18T22:50:21.605Z,79.93
2022-12-18T22:52:51.674Z,85.03
2022-12-18T22:55:22.570Z,78.55
2022-12-18T22:57:52.675Z,78.57
2022-12-18T23:00:25.834Z,78.15
2022-12-18T23:03:00.716Z,74.00
2022-12-18T23:05:32.433Z,73.15
2022-12-18T23:08:03.089Z,75.45
2022-12-18T23:10:33.888Z,73.57
2022-12-18T23:13:04.418Z,74.45
2022-12-18T23:15:44.043Z,74.15
2022-12-18T23:18:14.500Z,74.13
2022-12-18T23:20:44.742Z,77.63
2022-12-18T23:23:16.216Z,73.60
2022-12-18T23:25:46.446Z,73.93
2022-12-18T23:28:17.824Z,73.40
2022-12-18T23:30:51.320Z,75.35
2022-12-18T23:33:21.427Z,77.10
2022-12-18T23:35:51.773Z,77.25
2022-12-18T23:38:23.242Z,73.45
2022-12-18T23:40:56.329Z,73.78
2022-12-18T23:43:29.512Z,80.40
2022-12-18T23:46:02.571Z,77.97
2022-12-18T23:48:33.160Z,78.85
2022-12-18T23:51:11.171Z,73.75
2022-12-18T23:53:41.557Z,75.38
2022-12-18T23:56:13.702Z,75.15
2022-12-18T23:58:47.082Z,76.93
